Time;durP1;ratioP1;P1;durP2;ratioP2;P2;SDS_P1;SDS_P2;PMS_P1;PMS_P2;Temp;Humidity;BMP_temperature;BMP_pressure;BME280_temperature;BME280_humidity;BME280_pressure;Samples;Min_cycle;Max_cycle;Signal;HPM_P1;HPM_P2
2021/11/12 00:13:47;;;;;;;180.40;105.80;;;;;;;0.83;99.44;99737.91;102292;1310;62199;-72
2021/11/12 00:16:15;;;;;;;188.90;111.10;;;;;;;0.83;99.44;99734.59;101852;1317;74924;-72
2021/11/12 00:18:42;;;;;;;185.70;115.30;;;;;;;0.83;99.55;99735.29;101822;1316;68571;-72
2021/11/12 00:21:09;;;;;;;166.70;100.70;;;;;;;0.81;99.76;99727.61;102268;1310;74710;-72
2021/11/12 00:23:40;;;;;;;169.60;98.00;;;;;;;0.81;99.79;99730.59;102241;1311;61438;-72
2021/11/12 00:26:06;;;;;;;172.40;101.80;;;;;;;0.81;99.95;99733.04;102283;1314;61409;-71
2021/11/12 00:28:40;;;;;;;162.90;92.60;;;;;;;0.81;99.89;99730.77;102326;1313;75528;-72
2021/11/12 00:31:25;;;;;;;166.00;94.70;;;;;;;0.81;99.80;99730.77;102327;1311;70821;-71
2021/11/12 00:36:47;;;;;;;140.50;81.90;;;;;;;0.79;99.83;99736.92;102356;1314;61655;-72
2021/11/12 00:39:36;;;;;;;151.90;85.00;;;;;;;0.80;99.91;99732.52;102333;1316;61278;-72
2021/11/12 00:42:14;;;;;;;153.60;85.40;;;;;;;0.80;99.98;99730.95;102342;1310;75499;-71
2021/11/12 00:47:19;;;;;;;150.00;80.90;;;;;;;0.81;100.00;99733.05;102309;1316;73542;-70
2021/11/12 00:49:59;;;;;;;148.00;82.40;;;;;;;0.81;100.00;99737.59;102288;1310;61355;-71
2021/11/12 00:55:11;;;;;;;157.30;83.90;;;;;;;0.81;100.00;99737.06;102492;1317;76493;-71
2021/11/12 00:57:38;;;;;;;148.40;81.90;;;;;;;0.81;100.00;99736.90;102533;1316;70222;-72
2021/11/12 01:00:07;;;;;;;149.00;80.80;;;;;;;0.79;100.00;99734.99;102476;1316;73526;-72
2021/11/12 01:02:35;;;;;;;156.10;87.30;;;;;;;0.77;100.00;99735.55;102530;1318;61361;-71
2021/11/12 01:05:03;;;;;;;148.50;84.20;;;;;;;0.77;100.00;99738.70;102591;1311;62392;-72
2021/11/12 01:07:30;;;;;;;146.70;83.70;;;;;;;0.75;100.00;99736.98;102713;1310;76453;-72
2021/11/12 01:09:59;;;;;;;138.10;79.50;;;;;;;0.72;100.00;99736.16;103103;1310;70050;-72
2021/11/12 01:12:26;;;;;;;142.00;83.90;;;;;;;0.70;100.00;99737.41;103258;1310;72918;-72
2021/11/12 01:14:54;;;;;;;134.60;79.30;;;;;;;0.68;100.00;99738.14;102896;1310;61421;-71
2021/11/12 01:17:20;;;;;;;145.60;81.50;;;;;;;0.66;100.00;99736.60;104795;1310;62263;-73
2021/11/12 01:19:48;;;;;;;138.70;83.20;;;;;;;0.63;100.00;99733.31;104916;1316;73698;-72
2021/11/12 01:22:16;;;;;;;140.20;78.00;;;;;;;0.63;100.00;99737.16;105014;1317;69578;-72
2021/11/12 01:24:43;;;;;;;134.30;83.50;;;;;;;0.62;100.00;99734.38;104730;1310;71542;-72
2021/11/12 01:27:10;;;;;;;132.90;79.60;;;;;;;0.60;100.00;99734.58;102340;1316;61589;-72
2021/11/12 01:29:38;;;;;;;133.30;76.50;;;;;;;0.57;99.95;99732.35;102412;1310;61645;-72
2021/11/12 01:32:22;;;;;;;126.40;73.70;;;;;;;0.53;99.80;99732.23;102416;1310;75821;-70
2021/11/12 01:34:52;;;;;;;120.40;73.70;;;;;;;0.48;99.74;99728.64;102137;1316;68880;-72
2021/11/12 01:37:22;;;;;;;116.70;70.50;;;;;;;0.44;99.81;99730.08;102303;1311;73464;-74
2021/11/12 01:39:56;;;;;;;133.30;76.90;;;;;;;0.40;99.58;99731.02;102286;1310;61317;-70
2021/11/12 01:42:26;;;;;;;130.10;73.10;;;;;;;0.35;99.61;99728.63;101865;1310;61765;-72
2021/11/12 01:45:09;;;;;;;126.70;72.90;;;;;;;0.32;99.49;99732.70;102374;1310;75720;-71
2021/11/12 01:47:55;;;;;;;128.80;73.00;;;;;;;0.28;99.62;99728.38;101519;1310;1003809;-71
2021/11/12 01:50:25;;;;;;;129.10;72.80;;;;;;;0.24;99.60;99726.17;102255;1310;74746;-72
2021/11/12 01:52:57;;;;;;;125.10;69.90;;;;;;;0.20;99.44;99726.92;102249;1310;61415;-72
2021/11/12 01:55:45;;;;;;;121.00;67.40;;;;;;;0.15;99.38;99724.89;102229;1316;62275;-72
2021/11/12 01:58:38;;;;;;;122.20;66.30;;;;;;;0.12;99.30;99725.12;102230;1310;75497;-71
2021/11/12 02:01:05;;;;;;;125.10;71.10;;;;;;;0.09;99.36;99730.20;101971;1310;69634;-71
2021/11/12 02:03:32;;;;;;;145.00;84.50;;;;;;;0.14;99.84;99730.14;102226;1310;74395;-72
2021/11/12 02:05:58;;;;;;;132.10;75.00;;;;;;;0.22;100.00;99731.09;102222;1311;61318;-71
2021/11/12 02:08:25;;;;;;;124.80;70.10;;;;;;;0.31;100.00;99730.63;102302;1311;61279;-72
2021/11/12 02:10:52;;;;;;;129.90;77.90;;;;;;;0.37;100.00;99731.06;102262;1310;75435;-71
2021/11/12 02:13:21;;;;;;;121.50;74.60;;;;;;;0.46;99.99;99727.45;102134;1313;70962;-73
2021/11/12 02:15:48;;;;;;;125.80;75.00;;;;;;;0.53;99.90;99725.59;102320;1310;74707;-72
2021/11/12 02:18:16;;;;;;;115.90;69.20;;;;;;;0.58;99.90;99723.59;102360;1310;61341;-71
2021/11/12 02:23:50;;;;;;;108.30;64.20;;;;;;;0.63;99.74;99717.73;102034;1316;74877;-72
2021/11/12 02:26:23;;;;;;;118.80;68.80;;;;;;;0.68;99.75;99716.29;102205;1316;70669;-72
2021/11/12 02:28:55;;;;;;;107.70;63.20;;;;;;;0.73;99.80;99716.20;102024;1314;74841;-72
2021/11/12 02:31:25;;;;;;;105.70;63.00;;;;;;;0.80;99.86;99710.14;102279;1310;61349;-72
2021/11/12 02:33:55;;;;;;;119.80;67.70;;;;;;;0.85;99.85;99707.61;102309;1310;61458;-71
2021/11/12 02:36:22;;;;;;;111.20;66.00;;;;;;;0.91;99.93;99705.59;101976;1318;75468;-71
2021/11/12 02:38:52;;;;;;;123.10;73.00;;;;;;;0.95;99.82;99700.98;102222;1310;70843;-71
2021/11/12 02:41:20;;;;;;;111.90;71.30;;;;;;;0.99;99.87;99704.42;102245;1313;72706;-71
2021/11/12 02:43:49;;;;;;;110.00;65.80;;;;;;;1.04;99.91;99708.70;102299;1310;61415;-71
2021/11/12 02:46:20;;;;;;;108.50;64.20;;;;;;;1.07;99.92;99705.70;102230;1313;61365;-71
2021/11/12 02:48:49;;;;;;;108.70;64.10;;;;;;;1.09;99.94;99702.66;102247;1314;76512;-71
2021/11/12 02:51:21;;;;;;;109.70;66.80;;;;;;;1.12;99.89;99699.81;102264;1310;70528;-71
2021/11/12 02:53:49;;;;;;;124.20;73.50;;;;;;;1.13;99.76;99700.50;102219;1313;74535;-73
2021/11/12 02:56:29;;;;;;;112.60;68.60;;;;;;;1.14;99.83;99696.29;102217;1311;61367;-72
2021/11/12 02:59:19;;;;;;;132.90;83.30;;;;;;;1.17;99.84;99693.26;102223;1310;61417;-71
2021/11/12 03:01:47;;;;;;;145.70;89.40;;;;;;;1.23;100.00;99696.82;102192;1310;76538;-72
2021/11/12 03:04:15;;;;;;;140.00;85.80;;;;;;;1.30;100.00;99696.00;102328;1313;69952;-72
2021/11/12 03:06:43;;;;;;;140.80;87.00;;;;;;;1.38;100.00;99695.70;102262;1310;74211;-72
2021/11/12 03:09:11;;;;;;;146.30;90.80;;;;;;;1.44;100.00;99696.45;102242;1310;61400;-72
2021/11/12 03:11:39;;;;;;;147.80;87.40;;;;;;;1.49;100.00;99696.70;102220;1310;61244;-72
2021/11/12 03:14:07;;;;;;;134.00;82.30;;;;;;;1.55;100.00;99696.59;102239;1313;76450;-72
2021/11/12 03:16:35;;;;;;;121.90;78.80;;;;;;;1.58;100.00;99690.23;101842;1317;68549;-71
2021/11/12 03:19:03;;;;;;;127.20;79.60;;;;;;;1.61;100.00;99687.91;102290;1313;74817;-71
2021/11/12 03:21:31;;;;;;;129.40;81.10;;;;;;;1.63;100.00;99684.85;102214;1313;61320;-72
2021/11/12 03:24:05;;;;;;;131.10;80.10;;;;;;;1.67;100.00;99685.69;102238;1310;61548;-72
2021/11/12 03:59:57;;;;;;;130.30;79.60;;;;;;;2.23;100.00;99682.60;102199;1310;74586;-72
2021/11/12 05:13:36;;;;;;;121.00;76.10;;;;;;;2.52;100.00;99706.66;102254;1310;62672;-72
2021/11/12 05:56:36;;;;;;;137.40;92.50;;;;;;;2.88;100.00;99727.95;102297;1310;76710;-72
2021/11/12 05:59:03;;;;;;;141.80;96.10;;;;;;;2.90;100.00;99725.07;102427;1310;69908;-72
2021/11/12 06:01:31;;;;;;;138.00;98.00;;;;;;;2.90;100.00;99726.48;102423;1311;74807;-72
2021/11/12 06:03:58;;;;;;;138.50;95.90;;;;;;;2.92;100.00;99728.38;102320;1310;61369;-71
2021/11/12 06:06:24;;;;;;;136.30;93.50;;;;;;;2.94;100.00;99727.95;102278;1310;61219;-71
2021/11/12 06:08:51;;;;;;;142.00;96.30;;;;;;;2.97;100.00;99732.29;102286;1310;76481;-72
2021/11/12 06:11:18;;;;;;;134.50;88.90;;;;;;;3.00;100.00;99729.39;102307;1310;70510;-72
2021/11/12 06:13:44;;;;;;;130.60;87.70;;;;;;;3.03;100.00;99734.23;102278;1310;74504;-71
2021/11/12 06:16:11;;;;;;;133.00;89.80;;;;;;;3.06;100.00;99733.62;102271;1310;61298;-71
2021/11/12 06:18:38;;;;;;;131.90;85.30;;;;;;;3.09;100.00;99738.66;102301;1311;62310;-71
2021/11/12 06:21:05;;;;;;;135.50;93.00;;;;;;;3.11;100.00;99741.77;102248;1316;76411;-71
2021/11/12 06:23:31;;;;;;;131.60;91.90;;;;;;;3.13;100.00;99738.21;102278;1310;70739;-71
2021/11/12 06:25:58;;;;;;;126.50;88.40;;;;;;;3.17;100.00;99740.75;102290;1310;72802;-71
2021/11/12 06:28:24;;;;;;;131.30;87.40;;;;;;;3.20;100.00;99739.08;102263;1310;61662;-72
2021/11/12 06:30:51;;;;;;;130.60;88.90;;;;;;;3.23;100.00;99736.21;102274;1310;62165;-72
2021/11/12 06:33:19;;;;;;;138.10;93.50;;;;;;;3.27;100.00;99740.34;102315;1311;76470;-71
2021/11/12 06:35:45;;;;;;;129.30;89.20;;;;;;;3.28;100.00;99743.79;101979;1316;70936;-72
2021/11/12 06:38:15;;;;;;;123.40;86.60;;;;;;;3.30;100.00;99746.02;101906;1316;73538;-71
2021/11/12 06:40:41;;;;;;;129.50;85.90;;;;;;;3.33;100.00;99747.89;102128;1316;61341;-71
2021/11/12 06:43:21;;;;;;;121.50;87.50;;;;;;;3.37;100.00;99750.80;102618;1310;61217;-71
2021/11/12 06:51:21;;;;;;;120.70;81.00;;;;;;;3.49;100.00;99747.64;102120;1313;74588;-71
2021/11/12 06:53:49;;;;;;;137.10;91.50;;;;;;;3.54;100.00;99748.79;102595;1311;61351;-71
2021/11/12 06:56:19;;;;;;;128.30;85.00;;;;;;;3.57;100.00;99748.50;102525;1310;61241;-72
2021/11/12 06:58:46;;;;;;;118.70;79.20;;;;;;;3.61;100.00;99747.36;102533;1310;76237;-71
2021/11/12 07:01:13;;;;;;;120.90;80.20;;;;;;;3.65;100.00;99746.19;102600;1310;69702;-72
2021/11/12 07:03:40;;;;;;;118.10;79.90;;;;;;;3.69;100.00;99746.09;102282;1311;73631;-72
2021/11/12 07:06:07;;;;;;;113.10;78.20;;;;;;;3.74;100.00;99745.23;102721;1313;61225;-73
2021/11/12 07:08:33;;;;;;;108.10;75.90;;;;;;;3.81;100.00;99742.09;102919;1310;62209;-72
2021/11/12 07:11:00;;;;;;;112.70;75.10;;;;;;;3.85;100.00;99739.33;102701;1316;75649;-72
2021/11/12 07:13:30;;;;;;;108.80;75.40;;;;;;;3.89;100.00;99746.93;103044;1310;69570;-72
2021/11/12 07:15:58;;;;;;;111.20;73.50;;;;;;;3.93;100.00;99747.88;104563;1310;74509;-72
2021/11/12 07:18:30;;;;;;;112.80;75.30;;;;;;;3.98;100.00;99747.94;105377;1310;59583;-73
2021/11/12 07:20:58;;;;;;;136.10;89.90;;;;;;;4.02;100.00;99751.70;105026;1316;60290;-72
2021/11/12 07:23:26;;;;;;;123.10;80.60;;;;;;;4.05;100.00;99749.83;105052;1316;75499;-71
2021/11/12 07:25:54;;;;;;;121.40;82.30;;;;;;;4.09;100.00;99752.89;104223;1310;69387;-71
2021/11/12 07:28:24;;;;;;;119.30;81.00;;;;;;;4.15;100.00;99749.91;102406;1310;74510;-72
2021/11/12 07:30:53;;;;;;;114.80;80.70;;;;;;;4.21;100.00;99750.59;102450;1310;61358;-72
2021/11/12 07:33:20;;;;;;;99.80;66.70;;;;;;;4.28;100.00;99751.48;102467;1313;61206;-72
2021/11/12 07:36:36;;;;;;;100.60;67.60;;;;;;;4.33;100.00;99749.73;102480;1314;76696;-71
2021/11/12 07:38:57;;;;;;;102.50;68.90;;;;;;;4.37;100.00;99749.96;102188;1316;69990;-72
2021/11/12 07:47:28;;;;;;;107.50;72.40;;;;;;;4.56;100.00;99738.33;101842;1319;62665;-71
2021/11/12 07:49:54;;;;;;;116.90;75.20;;;;;;;4.60;100.00;99741.17;101821;1319;75247;-71
2021/11/12 07:52:25;;;;;;;108.60;73.10;;;;;;;4.65;100.00;99740.50;101799;1319;69560;-72
2021/11/12 07:54:52;;;;;;;113.80;75.00;;;;;;;4.70;100.00;99741.73;101841;1319;74561;-71
2021/11/12 07:57:20;;;;;;;102.90;73.20;;;;;;;4.75;100.00;99739.16;101430;1322;61347;-73
2021/11/12 07:59:46;;;;;;;109.50;76.00;;;;;;;4.76;100.00;99736.13;101501;1319;61865;-73
2021/11/12 08:02:15;;;;;;;110.10;75.70;;;;;;;4.77;100.00;99736.43;101409;1319;72621;-72
2021/11/12 08:04:43;;;;;;;110.80;77.30;;;;;;;4.82;100.00;99737.34;101837;1317;69748;-74
2021/11/12 08:07:11;;;;;;;107.80;77.80;;;;;;;4.84;99.91;99734.29;101862;1319;74341;-73
2021/11/12 08:10:03;;;;;;;108.10;74.50;;;;;;;4.85;99.84;99730.20;101800;1319;61418;-73
2021/11/12 08:12:29;;;;;;;110.90;76.10;;;;;;;4.88;99.90;99724.48;101857;1322;61393;-75
2021/11/12 08:17:40;;;;;;;114.80;79.80;;;;;;;4.98;99.83;99728.73;101822;1320;70691;-74
2021/11/12 08:20:53;;;;;;;116.70;77.50;;;;;;;5.02;99.89;99727.01;101794;1317;73489;-74
2021/11/12 08:26:15;;;;;;;111.20;75.30;;;;;;;5.14;99.60;99724.15;101554;1316;61634;-73
2021/11/12 08:41:40;;;;;;;109.90;74.70;;;;;;;5.40;99.12;99723.48;102263;1310;76529;-76
2021/11/12 08:44:19;;;;;;;109.20;75.30;;;;;;;5.46;99.07;99719.89;102276;1310;71259;-75
2021/11/12 08:49:17;;;;;;;105.10;77.30;;;;;;;5.58;98.84;99712.29;102213;1318;61336;-74
2021/11/12 08:51:44;;;;;;;116.50;76.20;;;;;;;5.62;98.78;99705.59;101840;1311;62381;-73
2021/11/12 08:54:11;;;;;;;103.90;72.90;;;;;;;5.70;98.76;99704.09;102323;1314;76453;-75
2021/11/12 08:56:38;;;;;;;103.50;72.40;;;;;;;5.80;98.81;99697.39;102297;1313;69417;-75
2021/11/12 08:59:06;;;;;;;101.80;72.40;;;;;;;5.88;98.67;99697.96;102287;1310;74844;-73
2021/11/12 09:01:34;;;;;;;98.80;71.40;;;;;;;5.97;98.79;99695.91;102303;1317;61335;-73
2021/11/12 09:04:01;;;;;;;101.60;69.40;;;;;;;6.03;98.32;99693.23;102341;1316;61416;-73
2021/11/12 09:06:28;;;;;;;97.40;69.70;;;;;;;6.04;98.05;99694.23;102297;1316;76129;-73
2021/11/12 09:08:56;;;;;;;96.60;65.60;;;;;;;6.03;97.83;99688.80;102245;1310;70470;-73
2021/11/12 09:11:22;;;;;;;91.50;62.50;;;;;;;6.02;97.65;99690.27;102361;1310;73257;-73
2021/11/12 09:13:53;;;;;;;86.30;60.80;;;;;;;6.01;97.65;99689.05;102322;1313;61670;-74
2021/11/12 09:16:29;;;;;;;95.10;65.00;;;;;;;6.03;97.61;99684.23;102357;1317;61310;-75
2021/11/12 09:18:57;;;;;;;88.00;62.50;;;;;;;6.06;97.69;99685.89;102379;1317;76574;-74
2021/11/12 09:21:28;;;;;;;88.70;60.40;;;;;;;6.10;97.67;99683.98;102405;1310;70632;-78
2021/11/12 09:23:57;;;;;;;86.10;60.60;;;;;;;6.15;97.70;99675.13;102357;1310;73516;-76
2021/11/12 09:26:25;;;;;;;92.20;61.70;;;;;;;6.22;97.55;99675.92;102431;1317;61421;-76
2021/11/12 09:28:52;;;;;;;87.70;61.20;;;;;;;6.28;97.41;99678.50;102364;1313;61289;-76
2021/11/12 09:31:20;;;;;;;90.70;65.80;;;;;;;6.33;97.17;99679.75;102055;1313;73724;-80
2021/11/12 09:33:47;;;;;;;90.80;64.60;;;;;;;6.32;96.93;99682.94;102387;1313;69568;-77
2021/11/12 09:36:14;;;;;;;88.80;61.40;;;;;;;6.33;97.00;99679.92;102331;1310;72871;-76
2021/11/12 09:38:41;;;;;;;79.60;56.20;;;;;;;6.37;96.95;99680.29;102439;1310;61412;-76
2021/11/12 09:41:09;;;;;;;86.20;60.30;;;;;;;6.41;96.86;99670.25;102388;1317;62258;-76
2021/11/12 09:43:36;;;;;;;92.10;63.50;;;;;;;6.45;96.68;99666.55;102282;1310;75541;-76
2021/11/12 09:46:06;;;;;;;81.10;55.90;;;;;;;6.49;96.55;99662.70;101877;1317;68069;-76
2021/11/12 09:48:33;;;;;;;90.40;62.10;;;;;;;6.53;96.45;99658.46;102009;1313;74683;-75
2021/11/12 09:51:00;;;;;;;89.60;61.60;;;;;;;6.61;96.45;99660.11;102268;1310;61406;-75
2021/11/12 09:53:27;;;;;;;81.90;60.20;;;;;;;6.67;96.44;99656.17;102360;1317;61395;-75
2021/11/12 09:55:54;;;;;;;83.70;59.60;;;;;;;6.70;96.20;99654.08;102371;1311;75477;-74
2021/11/12 09:58:22;;;;;;;78.50;53.40;;;;;;;6.71;95.97;99650.86;102350;1317;70681;-75
2021/11/12 10:00:56;;;;;;;83.30;59.30;;;;;;;6.71;95.75;99648.04;102684;1310;71933;-75
2021/11/12 10:03:31;;;;;;;82.60;60.40;;;;;;;6.74;95.61;99648.45;102543;1313;61301;-74
2021/11/12 10:06:00;;;;;;;84.30;59.80;;;;;;;6.75;95.51;99641.70;102564;1314;61190;-74
2021/11/12 10:08:33;;;;;;;91.20;66.30;;;;;;;6.82;95.59;99638.96;102355;1310;75294;-76
2021/11/12 10:11:04;;;;;;;90.10;64.00;;;;;;;6.89;95.47;99634.04;102376;1310;69495;-75
2021/11/12 10:13:35;;;;;;;77.50;56.20;;;;;;;6.98;95.29;99628.38;102200;1318;72620;-74
2021/11/12 10:19:03;;;;;;;59.80;43.60;;;;;;;7.05;94.80;99625.78;102288;1316;61295;-75
2021/11/12 10:21:36;;;;;;;44.40;32.40;;;;;;;7.12;94.41;99624.25;102345;1311;75284;-75
2021/11/12 10:24:16;;;;;;;43.70;31.20;;;;;;;7.15;93.74;99625.55;102311;1310;70521;-76
2021/11/12 10:26:50;;;;;;;50.20;35.30;;;;;;;7.13;93.55;99624.56;102148;1319;72526;-74
2021/11/12 10:29:27;;;;;;;51.50;36.80;;;;;;;7.17;93.79;99617.16;102130;1313;61354;-76
2021/11/12 10:32:02;;;;;;;47.50;35.30;;;;;;;7.23;93.67;99617.08;101831;1313;61292;-75
2021/11/12 10:34:31;;;;;;;44.60;32.60;;;;;;;7.28;93.26;99617.20;102184;1317;75751;-74
2021/11/12 10:37:11;;;;;;;40.10;30.80;;;;;;;7.30;92.86;99610.05;102165;1320;70940;-75
2021/11/12 10:39:41;;;;;;;44.20;32.70;;;;;;;7.32;92.57;99607.34;102130;1313;71707;-75
2021/11/12 10:42:10;;;;;;;47.00;32.70;;;;;;;7.35;92.65;99601.89;101986;1319;61416;-75
2021/11/12 10:44:47;;;;;;;44.20;34.20;;;;;;;7.33;92.29;99602.14;102120;1315;61335;-75
2021/11/12 10:47:16;;;;;;;47.50;34.20;;;;;;;7.29;92.20;99596.83;102102;1313;76565;-76
2021/11/12 10:49:46;;;;;;;45.20;35.40;;;;;;;7.27;92.03;99593.05;102146;1313;70252;-74
2021/11/12 10:52:16;;;;;;;45.20;34.50;;;;;;;7.23;91.81;99588.96;102127;1316;73513;-75
2021/11/12 10:54:49;;;;;;;46.00;35.50;;;;;;;7.22;91.61;99591.14;102157;1313;61445;-75
2021/11/12 10:57:17;;;;;;;47.70;33.30;;;;;;;7.21;91.80;99589.57;102152;1317;61432;-75
2021/11/12 10:59:54;;;;;;;47.70;36.20;;;;;;;7.28;91.73;99590.17;102123;1319;75567;-82
2021/11/12 11:02:28;;;;;;;46.80;36.20;;;;;;;7.32;91.53;99584.33;102142;1313;71471;-77
2021/11/12 11:04:58;;;;;;;47.00;36.20;;;;;;;7.34;91.63;99582.81;102208;1316;72879;-77
2021/11/12 11:07:27;;;;;;;45.20;34.60;;;;;;;7.41;91.56;99580.59;102243;1313;61365;-78
2021/11/12 11:09:56;;;;;;;47.00;34.70;;;;;;;7.45;91.39;99584.61;102219;1320;61670;-76
2021/11/12 11:12:41;;;;;;;49.60;34.80;;;;;;;7.47;90.98;99581.91;102197;1317;73842;-77
2021/11/12 11:15:27;;;;;;;44.40;34.50;;;;;;;7.51;90.84;99585.84;102173;1319;70043;-77
2021/11/12 11:18:27;;;;;;;50.40;37.80;;;;;;;7.53;90.95;99575.97;102291;1313;73560;-77
2021/11/12 11:21:04;;;;;;;51.80;39.10;;;;;;;7.56;90.88;99570.20;102222;1313;61336;-78
2021/11/12 11:24:00;;;;;;;76.50;50.30;;;;;;;7.57;90.94;99567.65;102173;1316;61328;-76
2021/11/12 11:26:31;;;;;;;56.70;41.20;;;;;;;7.58;90.71;99563.55;102440;1310;74448;-76
2021/11/12 11:29:02;;;;;;;59.40;43.60;;;;;;;7.56;90.74;99565.05;102489;1310;70533;-78
2021/11/12 11:31:30;;;;;;;52.40;39.00;;;;;;;7.55;90.61;99563.34;102499;1316;73987;-78
2021/11/12 11:33:59;;;;;;;49.50;37.50;;;;;;;7.56;90.74;99564.33;102389;1316;61412;-77
2021/11/12 11:36:29;;;;;;;53.00;38.20;;;;;;;7.61;90.75;99566.05;102234;1316;61433;-77
2021/11/12 11:39:00;;;;;;;57.00;40.90;;;;;;;7.62;90.57;99565.99;102370;1310;75007;-77
2021/11/12 11:41:28;;;;;;;62.20;42.00;;;;;;;7.63;90.34;99561.55;102493;1304;67143;-77
2021/11/12 11:43:55;;;;;;;56.10;41.30;;;;;;;7.61;90.31;99555.99;102239;1316;74799;-76
2021/11/12 11:46:23;;;;;;;54.40;39.00;;;;;;;7.55;90.23;99555.54;101925;1316;61428;-78
2021/11/12 11:48:52;;;;;;;56.30;41.30;;;;;;;7.54;90.22;99555.06;101969;1316;61305;-76
2021/11/12 11:51:29;;;;;;;54.20;39.90;;;;;;;7.50;90.07;99556.84;101996;1316;73336;-77
2021/11/12 11:54:03;;;;;;;52.10;41.50;;;;;;;7.45;89.91;99545.92;102349;1310;69914;-77
2021/11/12 11:56:33;;;;;;;57.20;42.30;;;;;;;7.36;89.82;99546.84;102418;1310;73958;-78
2021/11/12 11:59:07;;;;;;;55.10;41.50;;;;;;;7.32;89.96;99544.23;102582;1311;61403;-77
2021/11/12 12:01:45;;;;;;;53.10;39.60;;;;;;;7.25;89.86;99544.88;102537;1309;62133;-76
2021/11/12 12:04:15;;;;;;;51.30;39.60;;;;;;;7.18;89.86;99544.48;102648;1310;76403;-77
2021/11/12 12:07:18;;;;;;;58.60;43.10;;;;;;;7.13;89.77;99542.73;103846;1310;67649;-76
2021/11/12 12:09:51;;;;;;;57.30;44.00;;;;;;;7.07;89.94;99539.48;102853;1318;73224;-77
2021/11/12 12:12:30;;;;;;;57.40;44.10;;;;;;;7.07;89.94;99541.96;101719;1318;61349;-77
2021/11/12 12:15:05;;;;;;;63.10;46.40;;;;;;;7.07;89.98;99532.59;101616;1318;61422;-78
2021/11/12 12:17:38;;;;;;;59.10;44.70;;;;;;;7.06;89.97;99531.23;101471;1320;74937;-78
2021/11/12 12:21:05;;;;;;;58.10;43.50;;;;;;;7.03;89.98;99533.09;101636;1322;69091;-79
2021/11/12 13:25:55;;;;;;;81.30;56.60;;;;;;;6.78;90.44;99489.37;105776;1310;61042;-77
2021/11/12 13:28:30;;;;;;;74.40;53.80;;;;;;;6.72;90.62;99493.84;105306;1313;73639;-77
2021/11/12 13:31:05;;;;;;;69.10;48.40;;;;;;;6.71;90.77;99493.55;105676;1316;70876;-76
2021/11/12 13:33:41;;;;;;;62.30;45.60;;;;;;;6.70;90.84;99493.38;103283;1317;73518;-78
2021/11/12 13:36:20;;;;;;;69.70;50.90;;;;;;;6.68;90.74;99486.23;102548;1310;61311;-78
2021/11/12 13:39:02;;;;;;;64.10;49.00;;;;;;;6.65;90.79;99486.56;102561;1310;61295;-78
2021/11/12 13:41:35;;;;;;;71.80;50.30;;;;;;;6.63;90.85;99479.59;102505;1316;76575;-77
2021/11/12 13:44:06;;;;;;;74.50;49.70;;;;;;;6.62;90.94;99474.33;102068;1318;67870;-78
2021/11/12 13:46:46;;;;;;;64.50;45.90;;;;;;;6.62;90.98;99471.83;102188;1318;73796;-77
2021/11/12 13:49:35;;;;;;;63.60;44.00;;;;;;;6.61;91.08;99473.31;101834;1316;61413;-77
2021/11/12 13:52:18;;;;;;;68.20;47.80;;;;;;;6.58;91.15;99467.09;102376;1314;61301;-78
2021/11/12 13:54:49;;;;;;;65.60;45.30;;;;;;;6.58;91.32;99465.66;102384;1314;75089;-76
2021/11/12 13:57:20;;;;;;;68.40;48.30;;;;;;;6.58;91.45;99468.31;102426;1309;69929;-79
2021/11/12 14:00:01;;;;;;;70.80;48.20;;;;;;;6.56;91.22;99472.96;102107;1317;74241;-78
2021/11/12 14:02:50;;;;;;;57.70;43.00;;;;;;;6.54;91.30;99474.84;102437;1314;61406;-78
2021/11/12 14:05:17;;;;;;;60.00;41.50;;;;;;;6.50;91.30;99474.50;102389;1310;61326;-77
2021/11/12 14:07:44;;;;;;;61.90;43.10;;;;;;;6.46;91.26;99473.42;102525;1311;75572;-73
2021/11/12 14:10:14;;;;;;;58.80;42.20;;;;;;;6.43;91.35;99466.85;102498;1311;70543;-74
2021/11/12 14:12:56;;;;;;;58.00;41.60;;;;;;;6.42;91.37;99464.08;102430;1311;73361;-74
2021/11/12 14:19:12;;;;;;;65.70;44.60;;;;;;;6.27;91.28;99460.83;102816;1313;62325;-76
2021/11/12 14:21:20;;;;;;;69.20;46.40;;;;;;;6.22;91.47;99463.67;102766;1310;75742;-81
2021/11/12 14:24:09;;;;;;;64.30;43.50;;;;;;;6.19;91.48;99465.04;102824;1311;70933;-83
2021/11/12 14:40:37;;;;;;;74.10;49.40;;;;;;;5.86;92.06;99460.31;102606;1310;75049;-72
2021/11/12 14:45:41;;;;;;;71.70;47.70;;;;;;;5.87;92.34;99466.46;102388;1317;61368;-72
2021/11/12 14:48:28;;;;;;;74.80;49.70;;;;;;;5.85;92.34;99463.73;102359;1310;75561;-73
2021/11/12 14:53:41;;;;;;;63.40;43.10;;;;;;;5.80;92.47;99446.81;102356;1314;73573;-72
2021/11/12 14:56:25;;;;;;;70.80;46.10;;;;;;;5.76;92.47;99447.67;102383;1317;61439;-73
2021/11/12 14:58:56;;;;;;;69.00;45.10;;;;;;;5.74;92.58;99447.77;102415;1310;61247;-73
2021/11/12 15:01:26;;;;;;;65.90;44.80;;;;;;;5.71;92.55;99452.80;102530;1313;76575;-74
2021/11/12 15:03:53;;;;;;;69.10;46.30;;;;;;;5.68;92.68;99448.71;102629;1311;70538;-74
2021/11/12 15:06:23;;;;;;;70.50;46.80;;;;;;;5.66;92.71;99447.19;102556;1310;73455;-73
2021/11/12 15:08:57;;;;;;;88.60;59.00;;;;;;;5.65;92.86;99443.70;102501;1317;61300;-73
2021/11/12 15:11:28;;;;;;;72.30;48.70;;;;;;;5.64;92.94;99443.23;102458;1316;61251;-71
2021/11/12 15:14:35;;;;;;;71.50;46.50;;;;;;;5.63;92.95;99446.63;102050;1317;76480;-72
2021/11/12 15:16:50;;;;;;;72.90;46.80;;;;;;;5.61;93.08;99445.63;102338;1317;68524;-73
2021/11/12 15:19:19;;;;;;;68.30;47.10;;;;;;;5.59;93.13;99441.49;102306;1314;73458;-73
2021/11/12 15:24:17;;;;;;;78.30;51.90;;;;;;;5.57;93.23;99433.44;102321;1314;61871;-72
2021/11/12 15:34:40;;;;;;;77.80;53.70;;;;;;;5.54;93.49;99438.33;102328;1311;61307;-72
2021/11/12 15:45:06;;;;;;;73.40;60.70;;;;;;;5.51;93.55;99441.81;102364;1310;73423;-71
2021/11/12 15:47:36;;;;;;;79.80;66.30;;;;;;;5.50;93.59;99438.84;102332;1317;61293;-73
2021/11/12 15:52:45;;;;;;;74.80;49.30;;;;;;;5.50;93.66;99437.77;102411;1315;75022;-73
2021/11/12 15:58:07;;;;;;;64.90;43.40;;;;;;;5.50;93.78;99441.47;102445;1310;74653;-74
2021/11/12 16:11:13;;;;;;;78.50;56.30;;;;;;;5.47;93.94;99443.55;102369;1316;73982;-73
2021/11/12 16:13:47;;;;;;;75.80;50.40;;;;;;;5.46;94.09;99446.06;102317;1311;61289;-73
2021/11/12 16:27:01;;;;;;;91.10;55.90;;;;;;;5.45;94.23;99436.23;101386;1322;61449;-73
2021/11/12 16:32:04;;;;;;;117.10;85.70;;;;;;;5.43;94.31;99443.52;101859;1316;76434;-72
2021/11/12 16:34:36;;;;;;;101.70;73.00;;;;;;;5.41;94.30;99439.92;101818;1317;70558;-73
2021/11/12 16:37:04;;;;;;;85.30;59.20;;;;;;;5.42;94.41;99440.90;101769;1317;74498;-73
2021/11/12 16:39:37;;;;;;;89.40;62.50;;;;;;;5.42;94.39;99437.72;101313;1323;61416;-73
2021/11/12 16:42:28;;;;;;;95.70;66.20;;;;;;;5.42;94.43;99435.63;101809;1316;62416;-72
2021/11/12 16:48:07;;;;;;;82.90;55.10;;;;;;;5.41;94.46;99432.50;101331;1324;68948;-72
2021/11/12 17:07:01;;;;;;;68.90;47.40;;;;;;;5.33;94.61;99445.52;102502;1314;61323;-83
2021/11/12 17:14:28;;;;;;;108.10;76.50;;;;;;;5.34;94.71;99440.54;102656;1317;69654;-80
2021/11/12 17:19:46;;;;;;;84.50;60.80;;;;;;;5.35;94.76;99439.09;102712;1310;61329;-82
2021/11/12 17:46:51;;;;;;;84.90;53.50;;;;;;;5.30;95.06;99436.46;102285;1310;61428;-74
2021/11/12 18:05:21;;;;;;;79.50;48.30;;;;;;;5.14;95.43;99409.57;102286;1317;76708;-74
2021/11/12 21:48:25;;;;;;;139.90;86.30;;;;;;;4.61;98.61;99357.85;102300;1310;61330;-74
2021/11/12 21:50:55;;;;;;;106.40;56.90;;;;;;;4.61;98.68;99356.98;102507;1310;62649;-72
2021/11/12 21:53:24;;;;;;;;;;;;;;;4.61;98.63;99351.00;102566;1310;75957;-73
2021/11/12 21:55:53;;;;;;;105.40;57.90;;;;;;;4.60;98.74;99354.55;102445;1313;68652;-74
2021/11/12 21:58:20;;;;;;;114.80;66.70;;;;;;;4.59;98.75;99355.29;102497;1311;74531;-71